Time;durP1;ratioP1;P1;durP2;ratioP2;P2;SDS_P1;SDS_P2;PMS_P1;PMS_P2;Temp;Humidity;BMP_temperature;BMP_pressure;BME280_temperature;BME280_humidity;BME280_pressure;Samples;Min_cycle;Max_cycle;Signal;HPM_P1;HPM_P2
2023/04/01 00:00:13;;;;;;;;;;;;;;;;;;5023626;28;43548;-80
2023/04/01 00:02:38;;;;;;;;;;;;;;;;;;5024785;28;43069;-79
2023/04/01 00:05:05;;;;;;;;;;;;;;;;;;5024081;28;43723;-79
2023/04/01 00:07:32;;;;;;;;;;;;;;;;;;5024616;28;43034;-79
2023/04/01 00:09:58;;;;;;;;;;;;;;;;;;5023211;28;43576;-80
2023/04/01 00:12:25;;;;;;;;;;;;;;;;;;5024669;28;42968;-79
2023/04/01 00:14:50;;;;;;;;;;;;;;;;;;5022357;28;42954;-79
2023/04/01 00:17:16;;;;;;;;;;;;;;;;;;5032086;28;43091;-79
2023/04/01 00:19:42;;;;;;;;;;;;;;;;;;5024347;28;42910;-79
2023/04/01 00:22:11;;;;;;;;;;;;;;;;;;5024158;28;42868;-79
2023/04/01 00:24:37;;;;;;;;;;;;;;;;;;5023701;28;42988;-78
2023/04/01 00:27:03;;;;;;;;;;;;;;;;;;5024117;28;42930;-79
2023/04/01 00:29:30;;;;;;;;;;;;;;;;;;5023982;28;42984;-80
2023/04/01 00:31:56;;;;;;;;;;;;;;;;;;5024530;28;42954;-79
2023/04/01 00:34:22;;;;;;;;;;;;;;;;;;5024093;28;44194;-79
2023/04/01 00:36:48;;;;;;;;;;;;;;;;;;5024140;28;42869;-79
2023/04/01 00:39:13;;;;;;;;;;;;;;;;;;5024127;28;43572;-78
2023/04/01 00:41:40;;;;;;;;;;;;;;;;;;5024156;28;42957;-79
2023/04/01 00:44:06;;;;;;;;;;;;;;;;;;5023752;28;42913;-79
2023/04/01 00:46:31;;;;;;;;;;;;;;;;;;5023079;28;42945;-79
2023/04/01 00:48:57;;;;;;;;;;;;;;;;;;5023393;28;44646;-80
2023/04/01 00:51:23;;;;;;;;;;;;;;;;;;5024078;28;42954;-80
2023/04/01 00:53:49;;;;;;;;;;;;;;;;;;5023708;28;42971;-79
2023/04/01 00:56:15;;;;;;;;;;;;;;;;;;5023670;28;43206;-79
2023/04/01 00:58:41;;;;;;;;;;;;;;;;;;5023819;28;43536;-80
2023/04/01 01:01:07;;;;;;;;;;;;;;;;;;5023981;28;43033;-79
2023/04/01 01:03:34;;;;;;;;;;;;;;;;;;5021134;28;43853;-79
2023/04/01 01:05:59;;;;;;;;;;;;;;;;;;5024197;28;42726;-79
2023/04/01 01:08:25;;;;;;;;;;;;;;;;;;5023411;28;43400;-79
2023/04/01 01:10:51;;;;;;;;;;;;;;;;;;5023587;28;43326;-80
2023/04/01 01:13:17;;;;;;;;;;;;;;;;;;5022564;28;42956;-79
2023/04/01 01:15:44;;;;;;;;;;;;;;;;;;5024095;28;42976;-80
2023/04/01 01:18:10;;;;;;;;;;;;;;;;;;5001538;28;45495;-79
2023/04/01 01:20:36;;;;;;;;;;;;;;;;;;5023440;28;43000;-79
2023/04/01 01:23:01;;;;;;;;;;;;;;;;;;5025491;28;43066;-79
2023/04/01 01:25:27;;;;;;;;;;;;;;;;;;5026110;28;43795;-78
2023/04/01 01:27:53;;;;;;;;;;;;;;;;;;5008092;28;43592;-80
2023/04/01 01:30:19;;;;;;;;;;;;;;;;;;5026070;28;43108;-80
2023/04/01 01:32:45;;;;;;;;;;;;;;;;;;5026516;28;42939;-79
2023/04/01 01:35:11;;;;;;;;;;;;;;;;;;5027085;28;43073;-80
2023/04/01 01:37:37;;;;;;;;;;;;;;;;;;5024550;28;43837;-79
2023/04/01 01:40:03;;;;;;;;;;;;;;;;;;5026596;28;42825;-79
2023/04/01 01:42:29;;;;;;;;;;;;;;;;;;5025958;28;43666;-79
2023/04/01 01:44:54;;;;;;;;;;;;;;;;;;5026318;28;42874;-79
2023/04/01 01:47:20;;;;;;;;;;;;;;;;;;5026248;28;43757;-79
2023/04/01 01:49:46;;;;;;;;;;;;;;;;;;5025866;28;43437;-79
2023/04/01 01:52:12;;;;;;;;;;;;;;;;;;5024882;28;42988;-80
2023/04/01 01:54:38;;;;;;;;;;;;;;;;;;5025660;28;43007;-79
2023/04/01 01:57:04;;;;;;;;;;;;;;;;;;5027074;28;43307;-79
2023/04/01 01:59:30;;;;;;;;;;;;;;;;;;5026048;28;42937;-79
2023/04/01 02:01:56;;;;;;;;;;;;;;;;;;5026488;28;43468;-80
2023/04/01 02:04:22;;;;;;;;;;;;;;;;;;5026301;28;43350;-79
2023/04/01 02:06:47;;;;;;;;;;;;;;;;;;5025857;28;43795;-79
2023/04/01 02:09:13;;;;;;;;;;;;;;;;;;5025677;28;43038;-79
2023/04/01 02:11:39;;;;;;;;;;;;;;;;;;5026631;28;42933;-79
2023/04/01 02:14:05;;;;;;;;;;;;;;;;;;5026301;28;42940;-79
2023/04/01 02:16:31;;;;;;;;;;;;;;;;;;5025095;28;43019;-80
2023/04/01 02:18:57;;;;;;;;;;;;;;;;;;5013255;28;42914;-79
2023/04/01 02:21:23;;;;;;;;;;;;;;;;;;5025921;28;43710;-79
2023/04/01 02:23:49;;;;;;;;;;;;;;;;;;5024715;28;43071;-80
2023/04/01 02:26:15;;;;;;;;;;;;;;;;;;5025935;28;43285;-79
2023/04/01 02:28:41;;;;;;;;;;;;;;;;;;5025658;28;42890;-79
2023/04/01 02:31:07;;;;;;;;;;;;;;;;;;5026396;28;43648;-80
2023/04/01 02:33:33;;;;;;;;;;;;;;;;;;5024644;28;42981;-80
2023/04/01 02:35:59;;;;;;;;;;;;;;;;;;5025847;28;43567;-79
2023/04/01 02:38:25;;;;;;;;;;;;;;;;;;5025591;28;43024;-80
2023/04/01 02:40:51;;;;;;;;;;;;;;;;;;5025778;28;42918;-79
2023/04/01 02:43:17;;;;;;;;;;;;;;;;;;5025831;28;43058;-79
2023/04/01 02:45:43;;;;;;;;;;;;;;;;;;5025212;28;43290;-79
2023/04/01 02:48:09;;;;;;;;;;;;;;;;;;5036805;28;43035;-79
2023/04/01 02:50:35;;;;;;;;;;;;;;;;;;5025436;28;43035;-79
2023/04/01 02:53:03;;;;;;;;;;;;;;;;;;5025630;28;43060;-79
2023/04/01 02:55:30;;;;;;;;;;;;;;;;;;5025666;28;44463;-80
2023/04/01 02:57:55;;;;;;;;;;;;;;;;;;5025956;28;42915;-79
2023/04/01 03:00:21;;;;;;;;;;;;;;;;;;5025496;28;44126;-79
2023/04/01 03:02:47;;;;;;;;;;;;;;;;;;5012794;28;42978;-79
2023/04/01 03:05:13;;;;;;;;;;;;;;;;;;5023671;28;44693;-80
2023/04/01 03:07:39;;;;;;;;;;;;;;;;;;5025597;28;42867;-79
2023/04/01 03:10:05;;;;;;;;;;;;;;;;;;5024977;28;42904;-79
2023/04/01 03:12:31;;;;;;;;;;;;;;;;;;5025048;28;43057;-79
2023/04/01 03:14:57;;;;;;;;;;;;;;;;;;5024784;28;43204;-79
2023/04/01 03:17:23;;;;;;;;;;;;;;;;;;5012311;28;43162;-79
2023/04/01 03:19:49;;;;;;;;;;;;;;;;;;5025086;28;43400;-79
2023/04/01 03:22:15;;;;;;;;;;;;;;;;;;5025200;28;42929;-79
2023/04/01 03:24:41;;;;;;;;;;;;;;;;;;5024147;28;42877;-80
2023/04/01 03:27:06;;;;;;;;;;;;;;;;;;5024393;28;43027;-79
2023/04/01 03:29:32;;;;;;;;;;;;;;;;;;5024278;28;43038;-79
2023/04/01 03:31:59;;;;;;;;;;;;;;;;;;5025037;28;43013;-79
2023/04/01 03:34:25;;;;;;;;;;;;;;;;;;5024760;28;43439;-79
2023/04/01 03:36:51;;;;;;;;;;;;;;;;;;5025367;28;43072;-80
2023/04/01 03:39:18;;;;;;;;;;;;;;;;;;5024173;28;42956;-79
2023/04/01 03:41:44;;;;;;;;;;;;;;;;;;5023634;28;43040;-78
2023/04/01 03:44:10;;;;;;;;;;;;;;;;;;5014064;28;43796;-79
2023/04/01 03:46:36;;;;;;;;;;;;;;;;;;5024691;28;42859;-79
2023/04/01 03:49:02;;;;;;;;;;;;;;;;;;5024411;28;43588;-79
2023/04/01 03:51:28;;;;;;;;;;;;;;;;;;5024397;28;42729;-79
2023/04/01 03:53:54;;;;;;;;;;;;;;;;;;5024626;28;43765;-78
2023/04/01 03:56:20;;;;;;;;;;;;;;;;;;5024206;28;43059;-79
2023/04/01 03:58:46;;;;;;;;;;;;;;;;;;5023773;28;43056;-79
2023/04/01 04:01:11;;;;;;;;;;;;;;;;;;5006454;28;43093;-79
2023/04/01 04:03:38;;;;;;;;;;;;;;;;;;5024484;28;42971;-79
2023/04/01 04:06:04;;;;;;;;;;;;;;;;;;5024797;28;42900;-79
2023/04/01 04:08:30;;;;;;;;;;;;;;;;;;5024173;28;43622;-79
2023/04/01 04:10:56;;;;;;;;;;;;;;;;;;5024553;28;42932;-78
2023/04/01 04:13:22;;;;;;;;;;;;;;;;;;5024500;28;44012;-79
2023/04/01 04:15:48;;;;;;;;;;;;;;;;;;5024597;28;42922;-79
2023/04/01 04:18:14;;;;;;;;;;;;;;;;;;5005953;28;44434;-79
2023/04/01 04:20:39;;;;;;;;;;;;;;;;;;5006444;28;42811;-78
2023/04/01 04:23:05;;;;;;;;;;;;;;;;;;5023903;28;43745;-79
2023/04/01 04:25:31;;;;;;;;;;;;;;;;;;5024198;28;42928;-79
2023/04/01 04:27:57;;;;;;;;;;;;;;;;;;5006171;28;44231;-79
2023/04/01 04:30:23;;;;;;;;;;;;;;;;;;5006435;28;43062;-78
2023/04/01 04:32:49;;;;;;;;;;;;;;;;;;5023823;28;43895;-80
2023/04/01 04:35:15;;;;;;;;;;;;;;;;;;5024242;28;42842;-79
2023/04/01 04:37:41;;;;;;;;;;;;;;;;;;5023588;28;43568;-79
2023/04/01 04:40:07;;;;;;;;;;;;;;;;;;5023736;28;42954;-79
2023/04/01 04:42:33;;;;;;;;;;;;;;;;;;5005486;28;44284;-79
2023/04/01 04:44:59;;;;;;;;;;;;;;;;;;5019697;28;43029;-78
2023/04/01 04:47:25;;;;;;;;;;;;;;;;;;5023356;28;43440;-79
2023/04/01 04:49:51;;;;;;;;;;;;;;;;;;5016623;28;43135;-79
2023/04/01 04:52:17;;;;;;;;;;;;;;;;;;5023640;28;44028;-79
2023/04/01 04:54:42;;;;;;;;;;;;;;;;;;5013959;28;43084;-79
2023/04/01 04:57:08;;;;;;;;;;;;;;;;;;5039609;28;44833;-79
2023/04/01 04:59:35;;;;;;;;;;;;;;;;;;5022468;28;43205;-79
2023/04/01 05:02:00;;;;;;;;;;;;;;;;;;5027045;28;43009;-79
2023/04/01 05:04:26;;;;;;;;;;;;;;;;;;5035246;28;42977;-79
2023/04/01 05:06:52;;;;;;;;;;;;;;;;;;5026904;28;43040;-79
2023/04/01 05:09:19;;;;;;;;;;;;;;;;;;5009316;28;43013;-79
2023/04/01 05:11:45;;;;;;;;;;;;;;;;;;5026915;28;42990;-79
2023/04/01 05:14:11;;;;;;;;;;;;;;;;;;5021532;28;42980;-79
2023/04/01 05:16:36;;;;;;;;;;;;;;;;;;5027128;28;43564;-79
2023/04/01 05:19:02;;;;;;;;;;;;;;;;;;5027094;28;44084;-79
2023/04/01 05:21:28;;;;;;;;;;;;;;;;;;5027322;28;43670;-79
2023/04/01 05:23:54;;;;;;;;;;;;;;;;;;5020306;28;43151;-78
2023/04/01 05:26:20;;;;;;;;;;;;;;;;;;5026718;28;42992;-79
2023/04/01 05:28:46;;;;;;;;;;;;;;;;;;5026518;28;42906;-79
2023/04/01 05:31:12;;;;;;;;;;;;;;;;;;5023776;28;43806;-79
2023/04/01 05:33:38;;;;;;;;;;;;;;;;;;5039471;28;42818;-79
2023/04/01 05:36:04;;;;;;;;;;;;;;;;;;5025925;28;43031;-79
2023/04/01 05:38:30;;;;;;;;;;;;;;;;;;5025562;28;42878;-80
2023/04/01 05:40:56;;;;;;;;;;;;;;;;;;5019269;28;44024;-79
2023/04/01 05:43:22;;;;;;;;;;;;;;;;;;5026922;28;42945;-79
2023/04/01 05:45:48;;;;;;;;;;;;;;;;;;5026477;28;43479;-79
2023/04/01 05:48:15;;;;;;;;;;;;;;;;;;5026585;28;43003;-80
2023/04/01 05:50:41;;;;;;;;;;;;;;;;;;5015403;28;43433;-79
2023/04/01 05:53:07;;;;;;;;;;;;;;;;;;5014228;28;42990;-79
2023/04/01 05:55:33;;;;;;;;;;;;;;;;;;5026230;28;44068;-80
2023/04/01 05:57:59;;;;;;;;;;;;;;;;;;5025822;28;42950;-79
2023/04/01 06:00:25;;;;;;;;;;;;;;;;;;5019985;28;43071;-79
2023/04/01 06:02:52;;;;;;;;;;;;;;;;;;5026456;28;43166;-79
2023/04/01 06:05:18;;;;;;;;;;;;;;;;;;5026103;28;43353;-79
2023/04/01 06:07:43;;;;;;;;;;;;;;;;;;5025398;28;43016;-79
2023/04/01 06:10:09;;;;;;;;;;;;;;;;;;5026460;28;42963;-79
2023/04/01 06:12:35;;;;;;;;;;;;;;;;;;5022514;28;42979;-79
2023/04/01 06:15:01;;;;;;;;;;;;;;;;;;5021250;28;43669;-80
2023/04/01 06:17:27;;;;;;;;;;;;;;;;;;5005472;28;42959;-79
2023/04/01 06:19:53;;;;;;;;;;;;;;;;;;5021338;28;43644;-79
2023/04/01 06:22:19;;;;;;;;;;;;;;;;;;5024516;28;43220;-78
2023/04/01 06:24:45;;;;;;;;;;;;;;;;;;5025880;28;42921;-78
2023/04/01 06:27:11;;;;;;;;;;;;;;;;;;5026035;28;43920;-79
2023/04/01 06:29:36;;;;;;;;;;;;;;;;;;5022412;28;43576;-79
2023/04/01 06:32:02;;;;;;;;;;;;;;;;;;5021109;28;43159;-78
2023/04/01 06:34:28;;;;;;;;;;;;;;;;;;5023727;28;43028;-80
2023/04/01 06:36:54;;;;;;;;;;;;;;;;;;5025644;28;43008;-78
2023/04/01 06:39:20;;;;;;;;;;;;;;;;;;5025545;28;42901;-78
2023/04/01 06:41:46;;;;;;;;;;;;;;;;;;5023160;28;43052;-77
2023/04/01 06:44:12;;;;;;;;;;;;;;;;;;5025422;28;42945;-78
2023/04/01 06:46:38;;;;;;;;;;;;;;;;;;5031620;28;43122;-78
2023/04/01 06:49:04;;;;;;;;;;;;;;;;;;5032858;28;43420;-79
2023/04/01 06:51:30;;;;;;;;;;;;;;;;;;5015904;28;42920;-80
2023/04/01 06:53:56;;;;;;;;;;;;;;;;;;5026324;28;42984;-80
2023/04/01 06:56:22;;;;;;;;;;;;;;;;;;5025975;28;43183;-80
2023/04/01 06:58:47;;;;;;;;;;;;;;;;;;5026184;28;42936;-80
2023/04/01 07:01:13;;;;;;;;;;;;;;;;;;5023462;28;42972;-81
2023/04/01 07:03:42;;;;;;;;;;;;;;;;;;5023771;28;43013;-81
2023/04/01 07:06:07;;;;;;;;;;;;;;;;;;5027371;28;42990;-83
2023/04/01 07:08:33;;;;;;;;;;;;;;;;;;5014321;28;45091;-80
2023/04/01 07:10:59;;;;;;;;;;;;;;;;;;5035807;28;42893;-81
2023/04/01 07:13:25;;;;;;;;;;;;;;;;;;5007380;28;44454;-81
2023/04/01 07:15:51;;;;;;;;;;;;;;;;;;5029383;28;43044;-81
2023/04/01 07:18:17;;;;;;;;;;;;;;;;;;5032478;28;42949;-81
2023/04/01 07:20:43;;;;;;;;;;;;;;;;;;5024528;28;42957;-81
2023/04/01 07:23:09;;;;;;;;;;;;;;;;;;5006742;28;44857;-81
2023/04/01 07:25:35;;;;;;;;;;;;;;;;;;5024172;28;42953;-81
2023/04/01 07:28:01;;;;;;;;;;;;;;;;;;5024957;28;43101;-81
2023/04/01 07:30:27;;;;;;;;;;;;;;;;;;5024263;28;43098;-82
2023/04/01 07:32:53;;;;;;;;;;;;;;;;;;5024705;28;43695;-78
2023/04/01 07:35:19;;;;;;;;;;;;;;;;;;5025029;28;42917;-81
2023/04/01 07:37:45;;;;;;;;;;;;;;;;;;5033916;28;44579;-80
2023/04/01 07:40:11;;;;;;;;;;;;;;;;;;5016060;28;43231;-81
2023/04/01 07:42:37;;;;;;;;;;;;;;;;;;5024513;28;42876;-80
2023/04/01 07:45:03;;;;;;;;;;;;;;;;;;5005935;28;43019;-79
2023/04/01 07:47:29;;;;;;;;;;;;;;;;;;5023189;28;43008;-80
2023/04/01 07:49:55;;;;;;;;;;;;;;;;;;5022518;28;42960;-80
2023/04/01 07:52:21;;;;;;;;;;;;;;;;;;5022324;28;43627;-80
2023/04/01 07:54:47;;;;;;;;;;;;;;;;;;5018951;28;43025;-81
2023/04/01 07:57:12;;;;;;;;;;;;;;;;;;5023147;28;42865;-81
2023/04/01 07:59:38;;;;;;;;;;;;;;;;;;5018638;28;42951;-81
2023/04/01 08:02:04;;;;;;;;;;;;;;;;;;5016789;28;42936;-81
2023/04/01 08:04:30;;;;;;;;;;;;;;;;;;5022415;28;43278;-80
2023/04/01 08:06:56;;;;;;;;;;;;;;;;;;5021914;28;43476;-81
2023/04/01 08:09:22;;;;;;;;;;;;;;;;;;5022444;28;43108;-81
2023/04/01 08:11:48;;;;;;;;;;;;;;;;;;5023657;28;43435;-81
2023/04/01 08:14:14;;;;;;;;;;;;;;;;;;5022444;28;43067;-81
2023/04/01 08:16:40;;;;;;;;;;;;;;;;;;5024358;28;42981;-81
2023/04/01 08:19:06;;;;;;;;;;;;;;;;;;5024506;28;42953;-82
2023/04/01 08:21:31;;;;;;;;;;;;;;;;;;5024186;28;43157;-81
2023/04/01 08:23:57;;;;;;;;;;;;;;;;;;5024039;28;43012;-80
2023/04/01 08:26:24;;;;;;;;;;;;;;;;;;5022155;28;43080;-81
2023/04/01 08:28:50;;;;;;;;;;;;;;;;;;5023295;28;43210;-82
2023/04/01 08:31:15;;;;;;;;;;;;;;;;;;5023379;28;43108;-81
2023/04/01 08:33:41;;;;;;;;;;;;;;;;;;5024672;28;43054;-82
2023/04/01 08:36:07;;;;;;;;;;;;;;;;;;5005797;28;43917;-82
2023/04/01 08:38:33;;;;;;;;;;;;;;;;;;5022168;28;43524;-82
2023/04/01 08:40:59;;;;;;;;;;;;;;;;;;5022216;28;42968;-82
2023/04/01 08:43:25;;;;;;;;;;;;;;;;;;5020928;28;42902;-82
2023/04/01 08:45:52;;;;;;;;;;;;;;;;;;5023512;28;42980;-86
2023/04/01 08:48:18;;;;;;;;;;;;;;;;;;5036705;28;43019;-86
2023/04/01 08:50:44;;;;;;;;;;;;;;;;;;5005665;28;44624;-86
2023/04/01 08:53:10;;;;;;;;;;;;;;;;;;5020997;28;42934;-84
2023/04/01 08:55:36;;;;;;;;;;;;;;;;;;5015534;28;43660;-86
2023/04/01 08:58:02;;;;;;;;;;;;;;;;;;5021611;28;43036;-84
2023/04/01 09:00:28;;;;;;;;;;;;;;;;;;5015006;28;43606;-82
2023/04/01 09:02:54;;;;;;;;;;;;;;;;;;5018994;28;42853;-83
2023/04/01 09:05:20;;;;;;;;;;;;;;;;;;5030591;28;44577;-84
2023/04/01 09:07:46;;;;;;;;;;;;;;;;;;5023903;28;43086;-87
2023/04/01 09:10:12;;;;;;;;;;;;;;;;;;5021704;28;42952;-79
2023/04/01 09:12:40;;;;;;;;;;;;;;;;;;5020328;28;42955;-83
2023/04/01 09:15:06;;;;;;;;;;;;;;;;;;5029930;28;44442;-86
2023/04/01 09:17:32;;;;;;;;;;;;;;;;;;5024095;28;43192;-83
2023/04/01 09:19:58;;;;;;;;;;;;;;;;;;5023873;28;42945;-83
2023/04/01 09:22:24;;;;;;;;;;;;;;;;;;5019593;28;42960;-82
2023/04/01 09:24:50;;;;;;;;;;;;;;;;;;5023133;28;43059;-82
2023/04/01 09:27:15;;;;;;;;;;;;;;;;;;5022000;28;43069;-81
2023/04/01 09:29:41;;;;;;;;;;;;;;;;;;5023631;28;43594;-81
2023/04/01 09:32:07;;;;;;;;;;;;;;;;;;5023695;28;43029;-82
2023/04/01 09:34:33;;;;;;;;;;;;;;;;;;5022207;28;43377;-81
2023/04/01 09:36:59;;;;;;;;;;;;;;;;;;5022477;28;43025;-83
2023/04/01 09:39:26;;;;;;;;;;;;;;;;;;5021471;28;44593;-85
2023/04/01 09:41:51;;;;;;;;;;;;;;;;;;5021679;28;43017;-85
2023/04/01 09:44:17;;;;;;;;;;;;;;;;;;5025495;28;43045;-85
2023/04/01 09:46:43;;;;;;;;;;;;;;;;;;5026347;28;42953;-84
2023/04/01 09:49:09;;;;;;;;;;;;;;;;;;5026209;28;42882;-85
2023/04/01 09:51:35;;;;;;;;;;;;;;;;;;5035544;28;42880;-84
2023/04/01 09:54:01;;;;;;;;;;;;;;;;;;5008629;28;44822;-86
2023/04/01 09:56:27;;;;;;;;;;;;;;;;;;5025617;28;42922;-84
2023/04/01 09:58:53;;;;;;;;;;;;;;;;;;5025556;28;42974;-85
2023/04/01 10:01:19;;;;;;;;;;;;;;;;;;5024432;28;43061;-84
2023/04/01 10:03:45;;;;;;;;;;;;;;;;;;5026278;28;43513;-84
2023/04/01 10:06:11;;;;;;;;;;;;;;;;;;5019861;28;42890;-85
2023/04/01 10:08:37;;;;;;;;;;;;;;;;;;5026688;28;43610;-82
2023/04/01 10:11:02;;;;;;;;;;;;;;;;;;5026597;28;42910;-90
2023/04/01 10:13:28;;;;;;;;;;;;;;;;;;5006978;28;44237;-88
2023/04/01 10:15:55;;;;;;;;;;;;;;;;;;5014983;28;42898;-89
2023/04/01 10:18:21;;;;;;;;;;;;;;;;;;5019123;28;43322;-89
2023/04/01 10:20:47;;;;;;;;;;;;;;;;;;5024553;28;42866;-91
2023/04/01 10:23:13;;;;;;;;;;;;;;;;;;5007647;28;45776;-89
2023/04/01 10:25:39;;;;;;;;;;;;;;;;;;5017634;28;43102;-87
2023/04/01 10:28:05;;;;;;;;;;;;;;;;;;5028397;28;43155;-87
2023/04/01 10:30:31;;;;;;;;;;;;;;;;;;5038253;28;43000;-88
2023/04/01 10:32:56;;;;;;;;;;;;;;;;;;5026099;28;43193;-92
2023/04/01 10:35:22;;;;;;;;;;;;;;;;;;4997166;28;42951;-89
2023/04/01 10:37:48;;;;;;;;;;;;;;;;;;5028626;28;42982;-93
2023/04/01 10:40:14;;;;;;;;;;;;;;;;;;5038535;28;43043;-84
2023/04/01 10:42:40;;;;;;;;;;;;;;;;;;5017523;28;42879;-85
2023/04/01 10:45:06;;;;;;;;;;;;;;;;;;5029823;28;43097;-89
2023/04/01 10:47:32;;;;;;;;;;;;;;;;;;5016797;28;43043;-83
2023/04/01 10:49:58;;;;;;;;;;;;;;;;;;5027168;28;42983;-92
2023/04/01 10:52:24;;;;;;;;;;;;;;;;;;5033646;28;43855;-84
2023/04/01 10:54:50;;;;;;;;;;;;;;;;;;5034843;28;42992;-86
2023/04/01 10:57:16;;;;;;;;;;;;;;;;;;5034121;28;42975;-84
2023/04/01 10:59:42;;;;;;;;;;;;;;;;;;5046206;28;42766;-83
2023/04/01 11:02:08;;;;;;;;;;;;;;;;;;5038030;28;43010;-87
2023/04/01 11:04:37;;;;;;;;;;;;;;;;;;5043558;28;42809;-92
2023/04/01 11:07:18;;;;;;;;;;;;;;;;;;5032991;28;42882;-85
2023/04/01 11:09:44;;;;;;;;;;;;;;;;;;5035340;28;42930;-85
2023/04/01 11:12:10;;;;;;;;;;;;;;;;;;5035824;28;43023;-91
2023/04/01 11:14:36;;;;;;;;;;;;;;;;;;5025305;28;43136;-89
2023/04/01 11:17:02;;;;;;;;;;;;;;;;;;5030322;28;44159;-87
2023/04/01 11:19:28;;;;;;;;;;;;;;;;;;5026091;28;42978;-95
2023/04/01 11:21:54;;;;;;;;;;;;;;;;;;5035316;28;43224;-93
2023/04/01 11:24:20;;;;;;;;;;;;;;;;;;5032276;28;43014;-84
2023/04/01 11:26:46;;;;;;;;;;;;;;;;;;5035228;28;42557;-86
2023/04/01 11:29:11;;;;;;;;;;;;;;;;;;5021899;28;43226;-92
2023/04/01 11:31:37;;;;;;;;;;;;;;;;;;5007281;28;44869;-89
2023/04/01 11:34:03;;;;;;;;;;;;;;;;;;5020428;28;43144;-87
2023/04/01 11:36:29;;;;;;;;;;;;;;;;;;5021718;28;43345;-87
2023/04/01 11:38:55;;;;;;;;;;;;;;;;;;5020995;28;43112;-87
2023/04/01 11:41:21;;;;;;;;;;;;;;;;;;5021813;28;43891;-89
2023/04/01 11:43:47;;;;;;;;;;;;;;;;;;5022610;28;42815;-93
2023/04/01 11:46:14;;;;;;;;;;;;;;;;;;5024637;28;42732;-91
2023/04/01 11:48:40;;;;;;;;;;;;;;;;;;5024418;28;42707;-92
2023/04/01 11:51:06;;;;;;;;;;;;;;;;;;5020892;28;43660;-90
2023/04/01 11:53:32;;;;;;;;;;;;;;;;;;5019046;28;42991;-92
2023/04/01 11:55:57;;;;;;;;;;;;;;;;;;5024374;28;43065;-92
2023/04/01 11:58:23;;;;;;;;;;;;;;;;;;5002244;28;43516;-86
2023/04/01 12:00:49;;;;;;;;;;;;;;;;;;5026698;28;43391;-83
2023/04/01 12:03:15;;;;;;;;;;;;;;;;;;5005732;28;43065;-89
2023/04/01 12:05:41;;;;;;;;;;;;;;;;;;5020983;28;43748;-90
2023/04/01 12:08:07;;;;;;;;;;;;;;;;;;4996580;28;42976;-89
2023/04/01 12:10:33;;;;;;;;;;;;;;;;;;5019612;28;43605;-85
2023/04/01 12:12:59;;;;;;;;;;;;;;;;;;5027627;28;43132;-87
2023/04/01 12:15:25;;;;;;;;;;;;;;;;;;5024064;28;43103;-87
2023/04/01 12:17:51;;;;;;;;;;;;;;;;;;5022341;28;43103;-85
2023/04/01 12:20:17;;;;;;;;;;;;;;;;;;4998282;28;43932;-87
2023/04/01 12:22:43;;;;;;;;;;;;;;;;;;5030468;28;42821;-90
2023/04/01 12:25:12;;;;;;;;;;;;;;;;;;5015611;28;45496;-94
2023/04/01 12:32:42;;;;;;;;;;;;;;;;;;5449455;22;43780;-89
2023/04/01 12:43:16;;;;;;;;;;;;;;;;;;5131694;22;43062;-87
2023/04/01 12:45:46;;;;;;;;;;;;;;;;;;5018947;28;42862;-87
2023/04/01 12:48:21;;;;;;;;;;;;;;;;;;5014467;28;43067;-87
2023/04/01 12:50:47;;;;;;;;;;;;;;;;;;5375863;22;43722;-89
2023/04/01 12:53:16;;;;;;;;;;;;;;;;;;5000330;28;43556;-89
2023/04/01 12:55:42;;;;;;;;;;;;;;;;;;5018450;28;43853;-89
2023/04/01 12:58:08;;;;;;;;;;;;;;;;;;5022596;28;42993;-89
2023/04/01 13:00:34;;;;;;;;;;;;;;;;;;5022240;28;43543;-89
2023/04/01 13:03:00;;;;;;;;;;;;;;;;;;5004949;28;42911;-89
2023/04/01 13:05:26;;;;;;;;;;;;;;;;;;5022733;28;42904;-89
2023/04/01 13:07:52;;;;;;;;;;;;;;;;;;5022775;28;42946;-89
2023/04/01 13:10:18;;;;;;;;;;;;;;;;;;5004420;28;44605;-90
2023/04/01 13:12:44;;;;;;;;;;;;;;;;;;5022861;28;43029;-90
2023/04/01 13:15:10;;;;;;;;;;;;;;;;;;5005095;28;44780;-90
2023/04/01 13:17:36;;;;;;;;;;;;;;;;;;5007076;28;42940;-90
2023/04/01 13:20:02;;;;;;;;;;;;;;;;;;5008392;28;45220;-89
2023/04/01 13:22:28;;;;;;;;;;;;;;;;;;5008677;28;42878;-90
2023/04/01 13:24:54;;;;;;;;;;;;;;;;;;5026572;28;42963;-90
2023/04/01 13:27:20;;;;;;;;;;;;;;;;;;5008134;28;43195;-89
2023/04/01 13:29:46;;;;;;;;;;;;;;;;;;5007995;28;44420;-90
2023/04/01 13:32:12;;;;;;;;;;;;;;;;;;5026982;28;42917;-90
2023/04/01 13:34:47;;;;;;;;;;;;;;;;;;5007961;28;44651;-89
2023/04/01 13:37:32;;;;;;;;;;;;;;;;;;;;;
2023/04/01 13:39:58;;;;;;;;;;;;;;;;;;5024197;28;74054;-90
2023/04/01 13:42:25;;;;;;;;;;;;;;;;;;5026438;28;43024;-89
2023/04/01 13:44:53;;;;;;;;;;;;;;;;;;5025873;28;43825;-90
2023/04/01 13:47:22;;;;;;;;;;;;;;;;;;5008651;28;43599;-89
2023/04/01 13:49:48;;;;;;;;;;;;;;;;;;5008876;28;44848;-89
2023/04/01 13:52:14;;;;;;;;;;;;;;;;;;5026993;28;43040;-90
2023/04/01 13:54:40;;;;;;;;;;;;;;;;;;5024385;28;45632;-89
2023/04/01 13:57:06;;;;;;;;;;;;;;;;;;5026684;28;42928;-89
2023/04/01 13:59:32;;;;;;;;;;;;;;;;;;5008254;28;44871;-88
2023/04/01 14:01:58;;;;;;;;;;;;;;;;;;5026893;28;42828;-89
2023/04/01 14:04:24;;;;;;;;;;;;;;;;;;5025569;28;43579;-90
2023/04/01 14:06:51;;;;;;;;;;;;;;;;;;5026218;28;43089;-90
2023/04/01 14:09:17;;;;;;;;;;;;;;;;;;5025883;28;44142;-89
2023/04/01 14:11:43;;;;;;;;;;;;;;;;;;5008118;28;43108;-89
2023/04/01 14:14:09;;;;;;;;;;;;;;;;;;5025882;28;43632;-90
2023/04/01 14:16:35;;;;;;;;;;;;;;;;;;5026135;28;42982;-89
2023/04/01 14:19:01;;;;;;;;;;;;;;;;;;5026104;28;42992;-90
2023/04/01 14:21:26;;;;;;;;;;;;;;;;;;5008954;28;43068;-89
2023/04/01 14:23:52;;;;;;;;;;;;;;;;;;5025557;28;42976;-89
2023/04/01 14:26:18;;;;;;;;;;;;;;;;;;5007629;28;42938;-89
2023/04/01 14:28:45;;;;;;;;;;;;;;;;;;5005688;28;44735;-90
2023/04/01 14:31:11;;;;;;;;;;;;;;;;;;5007710;28;43314;-89
2023/04/01 14:33:37;;;;;;;;;;;;;;;;;;5025194;28;43916;-89
2023/04/01 14:36:03;;;;;;;;;;;;;;;;;;5024971;28;43122;-89
2023/04/01 14:38:29;;;;;;;;;;;;;;;;;;5008048;28;45670;-90
2023/04/01 14:40:55;;;;;;;;;;;;;;;;;;5026159;28;42878;-88
2023/04/01 14:43:21;;;;;;;;;;;;;;;;;;5025994;28;42873;-89
2023/04/01 14:45:47;;;;;;;;;;;;;;;;;;5025967;28;42953;-90
2023/04/01 14:48:22;;;;;;;;;;;;;;;;;;5025601;28;43054;-89
2023/04/01 14:50:51;;;;;;;;;;;;;;;;;;5025327;28;43060;-89
2023/04/01 14:53:17;;;;;;;;;;;;;;;;;;5025341;28;43097;-88
2023/04/01 14:55:43;;;;;;;;;;;;;;;;;;5022408;28;43041;-89
2023/04/01 14:58:09;;;;;;;;;;;;;;;;;;5015568;28;42961;-87
2023/04/01 15:00:35;;;;;;;;;;;;;;;;;;5023005;28;43015;-86
2023/04/01 15:03:03;;;;;;;;;;;;;;;;;;5008195;28;43133;-90
2023/04/01 15:05:33;;;;;;;;;;;;;;;;;;4998117;28;43051;-89
2023/04/01 15:08:09;;;;;;;;;;;;;;;;;;4997625;28;44504;-88
2023/04/01 15:10:45;;;;;;;;;;;;;;;;;;;;;
2023/04/01 15:13:20;;;;;;;;;;;;;;;;;;5023697;28;72879;-89
2023/04/01 15:15:56;;;;;;;;;;;;;;;;;;5018407;28;43010;-89
2023/04/01 15:18:37;;;;;;;;;;;;;;;;;;5018541;28;45239;-89
2023/04/01 15:21:09;;;;;;;;;;;;;;;;;;5017243;28;43199;-93
2023/04/01 15:32:02;;;;;;;;;;;;;;;;;;4965353;28;43126;-90
2023/04/01 15:34:28;;;;;;;;;;;;;;;;;;4986929;28;44833;-85
2023/04/01 15:36:55;;;;;;;;;;;;;;;;;;5003591;28;43098;-84
2023/04/01 15:39:21;;;;;;;;;;;;;;;;;;5023036;28;44207;-84
2023/04/01 15:42:02;;;;;;;;;;;;;;;;;;5022290;28;42901;-84
2023/04/01 15:44:27;;;;;;;;;;;;;;;;;;5023278;28;43501;-85
2023/04/01 15:47:02;;;;;;;;;;;;;;;;;;5011591;22;43071;-85
2023/04/01 15:49:30;;;;;;;;;;;;;;;;;;5023979;28;42964;-84
2023/04/01 15:51:57;;;;;;;;;;;;;;;;;;5022209;28;43048;-84
2023/04/01 15:54:22;;;;;;;;;;;;;;;;;;5002419;28;45730;-84
2023/04/01 15:56:54;;;;;;;;;;;;;;;;;;5005511;28;43229;-84
2023/04/01 15:59:20;;;;;;;;;;;;;;;;;;5024585;28;44679;-84
2023/04/01 16:01:46;;;;;;;;;;;;;;;;;;5014625;28;43008;-84
2023/04/01 16:04:12;;;;;;;;;;;;;;;;;;5023799;28;43056;-85
2023/04/01 16:06:38;;;;;;;;;;;;;;;;;;5022055;28;42998;-84
2023/04/01 16:09:04;;;;;;;;;;;;;;;;;;5023419;28;43491;-85
2023/04/01 16:11:30;;;;;;;;;;;;;;;;;;5023486;28;43061;-84
2023/04/01 16:13:56;;;;;;;;;;;;;;;;;;5023543;28;43752;-83
2023/04/01 16:16:23;;;;;;;;;;;;;;;;;;5020550;28;43256;-86
2023/04/01 16:18:49;;;;;;;;;;;;;;;;;;4988496;28;43513;-87
2023/04/01 16:21:15;;;;;;;;;;;;;;;;;;5016539;28;43547;-86
2023/04/01 16:23:41;;;;;;;;;;;;;;;;;;4999326;28;43663;-87
2023/04/01 16:26:13;;;;;;;;;;;;;;;;;;5018650;28;43726;-89
2023/04/01 16:28:45;;;;;;;;;;;;;;;;;;4997883;28;44279;-86
2023/04/01 16:31:11;;;;;;;;;;;;;;;;;;5001894;28;43704;-84
2023/04/01 16:33:37;;;;;;;;;;;;;;;;;;5015534;28;43787;-88
2023/04/01 16:36:05;;;;;;;;;;;;;;;;;;5024475;22;42933;-87
2023/04/01 16:38:31;;;;;;;;;;;;;;;;;;5016292;28;45687;-84
2023/04/01 16:40:59;;;;;;;;;;;;;;;;;;5016708;28;43059;-83
2023/04/01 16:43:25;;;;;;;;;;;;;;;;;;5017692;28;43499;-85
2023/04/01 16:45:53;;;;;;;;;;;;;;;;;;4991402;28;43077;-86
2023/04/01 16:48:19;;;;;;;;;;;;;;;;;;5021080;28;43807;-87
2023/04/01 16:50:48;;;;;;;;;;;;;;;;;;5092430;22;43041;-86
2023/04/01 16:53:15;;;;;;;;;;;;;;;;;;5006755;28;43620;-86
2023/04/01 16:55:47;;;;;;;;;;;;;;;;;;5015432;28;43197;-86
2023/04/01 16:58:13;;;;;;;;;;;;;;;;;;5025546;28;43601;-87
2023/04/01 17:00:39;;;;;;;;;;;;;;;;;;5026165;28;43057;-84